Friday, November 24, 2017, 12:37 AM EST
Back to Local

KPWM, Portland International Jetport

Location: Portland, ME, United States Lat: 43.65
Local Time: 12:37 AM EST ( 5:37 GMT) Lon: -70.3
Time Zone: US/Eastern Elev: 75 ft

Show me the last for .
Show Coded

Time T Td Feel RH Dir Speed Gust Alt SLP Vis Weather Sky Remarks
2017-11-23 23:51 29 17 - 60 - Calm - 29.94 29.94 10 FEW100 24-hr Min Temp (12am): 25.0°F
24-hr Max Temp (12am): 41.0°F
2017-11-23 22:51 30 18 26 60 240° 3 - 29.94 29.94 10 BKN100 None
2017-11-23 21:51 29 19 23 66 270° 6 - 29.95 29.96 10 BKN100 None
2017-11-23 20:51 30 18 23 60 260° 7 - 29.96 29.96 10 SCT100 None
2017-11-23 19:51 30 18 26 60 270° 3 - 29.96 29.96 10 CLR None
2017-11-23 18:51 32 16 26 51 260° 6 - 29.96 29.96 10 FEW150 6-hr Min Temp (7pm): 30.9°F
6-hr Max Temp (7pm): 41.0°F
2017-11-23 17:51 33 16 30 48 250° 3 - 29.96 29.96 10 SCT150 None
2017-11-23 16:51 33 19 26 55 270° 8 - 29.95 29.95 10 BKN110 BKN150 None
2017-11-23 15:51 39 16 - 38 - Calm - 29.95 29.95 10 BKN150 None
2017-11-23 14:51 39 16 - 38 - Calm - 29.95 29.95 10 BKN100 None
2017-11-23 13:51 40 20 37 44 Variable 5 - 29.94 29.95 10 FEW100 SCT250 None
2017-11-23 12:51 38 20 32 47 250° 8 - 29.96 29.96 10 FEW150 SCT250 6-hr Min Temp (1pm): 26.1°F
6-hr Max Temp (1pm): 39.0°F
2017-11-23 11:51 37 21 32 51 290° 7 - 29.96 29.96 10 FEW200 BKN250 None
2017-11-23 10:51 36 23 30 58 Variable 7 - 29.98 29.98 10 FEW100 FEW200 BKN250 None
2017-11-23 09:51 33 21 27 60 300° 7 - 29.99 30.00 10 SCT250 None
2017-11-23 08:51 31 21 23 66 280° 9 - 29.99 29.99 10 FEW035 FEW250 None
2017-11-23 07:51 29 22 20 74 250° 10 - 30.00 30.00 10 FEW040 FEW250 None
2017-11-23 06:51 26 22 21 84 190° 5 - 29.99 29.99 10 FEW045 24-hr Precip Total (7am): 0.43"
6-hr Min Temp (7am): 25.0°F
6-hr Max Temp (7am): 34.0°F
2017-11-23 05:51 28 21 22 74 270° 6 - 29.96 29.97 10 FEW040 None
2017-11-23 04:51 28 24 22 84 270° 6 - 29.95 29.95 10 CLR None
2017-11-23 03:51 30 25 23 81 270° 7 - 29.94 29.94 10 FEW028 None
2017-11-23 02:51 29 26 23 88 290° 6 - 29.92 29.93 10 SCT031 None
2017-11-23 01:51 32 24 29 72 Variable 3 - 29.90 29.91 10 CLR None
2017-11-23 00:51 32 28 26 85 280° 6 - 29.88 29.88 10 CLR 6-hr Precip Total (1am): 0.00"
6-hr Min Temp (1am): 32.0°F
6-hr Max Temp (1am): 39.9°F

Support USWX by starting your Amazon purchase here.